Time;durP1;ratioP1;P1;durP2;ratioP2;P2;SDS_P1;SDS_P2;PMS_P1;PMS_P2;Temp;Humidity;BMP_temperature;BMP_pressure;BME280_temperature;BME280_humidity;BME280_pressure;Samples;Min_cycle;Max_cycle;Signal;HPM_P1;HPM_P2
2022/12/16 00:00:04;;;;;;;30.20;15.43;;;;;;;0.70;45.80;101100.91;7387524;19;20451;-59
2022/12/16 00:02:30;;;;;;;30.90;14.68;;;;;;;0.77;45.49;101108.69;7386307;19;20034;-60
2022/12/16 00:04:56;;;;;;;28.40;14.77;;;;;;;0.77;45.52;101111.38;7396473;19;20106;-58
2022/12/16 00:07:23;;;;;;;26.42;13.90;;;;;;;0.69;45.65;101108.13;7393959;19;20009;-59
2022/12/16 00:09:48;;;;;;;29.13;14.68;;;;;;;0.70;45.76;101103.59;7396976;19;20003;-59
2022/12/16 00:12:14;;;;;;;25.17;14.35;;;;;;;0.74;45.43;101110.81;7397038;19;20011;-59
2022/12/16 00:14:40;;;;;;;26.17;14.15;;;;;;;0.72;45.61;101110.28;7396002;19;19999;-60
2022/12/16 00:17:06;;;;;;;27.02;14.25;;;;;;;0.79;45.54;101109.22;7395579;19;20398;-60
2022/12/16 00:19:32;;;;;;;27.83;14.48;;;;;;;0.85;45.50;101108.97;7396921;19;20027;-60
2022/12/16 00:21:57;;;;;;;24.67;13.80;;;;;;;0.88;45.34;101110.28;7393634;19;19994;-61
2022/12/16 00:24:23;;;;;;;25.83;14.52;;;;;;;0.91;45.28;101112.44;7395591;19;20092;-60
2022/12/16 00:26:50;;;;;;;28.33;13.60;;;;;;;0.94;45.05;101111.91;7396412;19;20003;-60
2022/12/16 00:29:16;;;;;;;28.13;13.90;;;;;;;0.83;45.45;101110.28;7393474;19;20090;-59
2022/12/16 00:31:46;;;;;;;25.38;13.45;;;;;;;0.90;45.25;101108.97;7396199;19;20082;-59
2022/12/16 00:34:16;;;;;;;27.63;14.02;;;;;;;0.92;45.15;101108.69;7394693;19;20014;-58
2022/12/16 00:36:42;;;;;;;27.95;14.15;;;;;;;0.78;45.44;101108.44;7396099;19;20048;-59
2022/12/16 00:39:09;;;;;;;28.80;14.65;;;;;;;0.77;45.34;101112.19;7393340;19;20003;-58
2022/12/16 00:41:35;;;;;;;28.65;14.20;;;;;;;0.86;45.49;101118.63;7395666;19;20014;-59
2022/12/16 00:44:02;;;;;;;26.05;13.73;;;;;;;0.92;45.50;101124.81;7394641;19;20007;-58
2022/12/16 00:46:27;;;;;;;27.75;14.63;;;;;;;0.97;45.06;101114.09;7395642;19;20029;-58
2022/12/16 00:48:53;;;;;;;28.60;14.32;;;;;;;1.02;45.00;101118.69;7393493;19;20002;-58
2022/12/16 00:51:19;;;;;;;24.52;13.88;;;;;;;0.95;45.04;101113.56;7395800;19;20013;-60
2022/12/16 00:53:45;;;;;;;26.13;14.30;;;;;;;0.86;45.08;101115.13;7394407;19;20009;-60
2022/12/16 00:56:17;;;;;;;25.70;13.40;;;;;;;0.85;45.22;101117.03;7395371;19;20007;-59
2022/12/16 00:58:43;;;;;;;25.67;13.43;;;;;;;0.80;45.14;101116.19;7393344;19;20009;-60
2022/12/16 01:01:09;;;;;;;23.50;13.45;;;;;;;0.88;45.23;101104.91;7394070;19;20009;-59
2022/12/16 01:03:35;;;;;;;25.25;14.18;;;;;;;0.99;44.92;101109.25;7392187;19;19994;-60
2022/12/16 01:06:10;;;;;;;24.70;13.45;;;;;;;0.98;45.02;101106.84;7395374;19;20555;-60
2022/12/16 01:08:35;;;;;;;27.58;13.60;;;;;;;0.93;44.94;101105.75;7393874;19;20058;-60
2022/12/16 01:11:01;;;;;;;28.85;14.73;;;;;;;0.89;45.20;101104.66;7394219;19;19999;-60
2022/12/16 01:13:27;;;;;;;26.08;14.15;;;;;;;0.99;45.00;101108.47;7392102;19;20002;-60
2022/12/16 01:15:53;;;;;;;26.33;14.40;;;;;;;0.98;45.08;101104.16;7393576;19;19999;-60
2022/12/16 01:18:20;;;;;;;27.92;13.70;;;;;;;0.77;45.41;101111.38;7393138;19;20014;-59
2022/12/16 01:20:45;;;;;;;28.10;15.25;;;;;;;0.74;45.64;101110.81;7392501;19;20011;-60
2022/12/16 01:23:11;;;;;;;26.05;14.07;;;;;;;0.97;45.38;101116.81;7391597;19;19995;-59
2022/12/16 01:25:37;;;;;;;27.95;15.18;;;;;;;0.81;45.71;101118.63;7394706;19;20009;-59
2022/12/16 01:28:03;;;;;;;25.58;14.38;;;;;;;0.79;45.50;101126.16;7393164;19;20490;-60
2022/12/16 01:30:28;;;;;;;26.33;14.35;;;;;;;0.66;45.77;101130.16;7393758;19;20390;-61
2022/12/16 01:32:54;;;;;;;26.85;14.48;;;;;;;0.72;45.71;101129.09;7393672;19;20006;-60
2022/12/16 01:35:20;;;;;;;28.67;13.77;;;;;;;0.87;45.55;101133.69;7393623;19;20302;-60
2022/12/16 01:37:46;;;;;;;26.80;14.75;;;;;;;0.93;45.35;101147.94;7393570;19;20022;-60
2022/12/16 01:40:17;;;;;;;26.65;14.10;;;;;;;0.84;45.40;101144.16;7393891;19;19994;-60
2022/12/16 01:42:44;;;;;;;28.25;14.10;;;;;;;0.72;45.75;101142.53;7392131;19;19994;-60
2022/12/16 01:45:34;;;;;;;22.75;13.57;;;;;;;0.64;45.99;101151.13;7391656;19;19998;-59
2022/12/16 01:48:10;;;;;;;26.70;14.20;;;;;;;0.70;46.03;101135.81;7391685;19;20094;-59
2022/12/16 01:50:36;;;;;;;26.73;14.02;;;;;;;0.77;46.12;101140.94;7393200;19;20062;-59
2022/12/16 01:53:03;;;;;;;29.02;15.38;;;;;;;0.68;45.96;101143.31;7392701;19;20009;-61
2022/12/16 01:55:36;;;;;;;29.10;14.25;;;;;;;0.80;45.99;101143.91;7392188;19;20435;-59
2022/12/16 01:58:15;;;;;;;27.65;15.48;;;;;;;0.57;46.28;101146.00;7392349;19;20484;-60
2022/12/16 02:00:41;;;;;;;26.90;14.98;;;;;;;0.51;46.62;101147.06;7393099;19;19995;-59
2022/12/16 02:03:08;;;;;;;28.50;15.35;;;;;;;0.70;46.26;101150.06;7390800;19;20078;-60
2022/12/16 02:05:37;;;;;;;28.23;14.75;;;;;;;0.90;45.84;101143.91;7392733;19;20011;-60
2022/12/16 02:08:08;;;;;;;32.92;14.90;;;;;;;1.01;45.29;101144.75;7392107;19;20002;-60
2022/12/16 02:10:45;;;;;;;29.02;14.98;;;;;;;0.98;45.35;101148.00;7392640;19;19998;-59
2022/12/16 02:13:38;;;;;;;26.25;14.40;;;;;;;0.94;45.67;101144.19;7391994;19;19995;-60
2022/12/16 02:16:25;;;;;;;27.75;15.45;;;;;;;1.01;45.41;101146.63;7390105;19;20482;-59
2022/12/16 02:19:00;;;;;;;25.13;13.57;;;;;;;1.06;45.47;101152.81;7390684;19;20062;-59
2022/12/16 02:21:36;;;;;;;26.33;14.00;;;;;;;1.06;45.75;101162.75;7392890;19;20606;-60
2022/12/16 02:24:37;;;;;;;27.90;14.27;;;;;;;1.14;45.48;101158.75;7391424;19;20018;-60
2022/12/16 02:27:21;;;;;;;26.60;14.02;;;;;;;1.09;45.49;101154.97;7387463;19;19991;-59
2022/12/16 02:30:11;;;;;;;25.52;14.15;;;;;;;1.22;45.24;101158.22;7392107;19;19998;-59
2022/12/16 02:32:56;;;;;;;24.20;13.40;;;;;;;1.31;44.97;101161.97;7391663;19;20009;-58
2022/12/16 02:35:40;;;;;;;;;;;;;;;1.11;45.23;101166.28;7390959;19;20002;-58
2022/12/16 02:38:37;;;;;;;30.13;15.05;;;;;;;1.14;45.44;101158.75;7390424;19;19920;-59
2022/12/16 02:41:05;;;;;;;25.08;13.57;;;;;;;1.03;45.73;101157.91;7391906;19;19999;-59
2022/12/16 02:43:49;;;;;;;27.00;13.65;;;;;;;1.07;45.19;101161.69;7389312;19;20339;-59
2022/12/16 02:46:17;;;;;;;24.42;13.65;;;;;;;1.17;45.35;101168.97;7391640;19;19998;-59
2022/12/16 02:48:43;;;;;;;31.88;14.07;;;;;;;1.24;45.05;101169.50;7389189;19;20002;-59
2022/12/16 02:51:09;;;;;;;26.08;15.00;;;;;;;1.27;45.17;101169.78;7391576;19;19998;-61
2022/12/16 02:53:38;;;;;;;30.10;14.93;;;;;;;1.24;45.05;101174.88;7391096;19;20023;-59
2022/12/16 02:56:49;;;;;;;27.40;14.85;;;;;;;1.12;45.42;101178.63;7391892;19;20006;-60
2022/12/16 02:59:41;;;;;;;26.20;15.43;;;;;;;1.19;44.94;101180.25;7387214;19;20022;-59
2022/12/16 03:02:18;;;;;;;26.85;14.77;;;;;;;0.95;45.55;101172.69;7388775;19;20007;-59
2022/12/16 03:04:53;;;;;;;27.55;14.73;;;;;;;0.81;46.01;101176.94;7390932;19;20039;-60
2022/12/16 03:07:23;;;;;;;26.33;14.65;;;;;;;0.77;45.95;101189.31;7391355;19;20065;-58
2022/12/16 03:09:51;;;;;;;28.90;15.18;;;;;;;0.80;45.92;101191.44;7391083;19;20002;-59
2022/12/16 03:12:20;;;;;;;28.02;15.15;;;;;;;0.87;45.79;101187.44;7390766;19;20003;-60
2022/12/16 03:14:50;;;;;;;29.05;14.40;;;;;;;0.84;45.97;101198.72;7391114;19;20006;-58
2022/12/16 03:17:18;;;;;;;28.30;15.77;;;;;;;0.53;46.59;101195.13;7390207;19;20020;-59
2022/12/16 03:19:52;;;;;;;27.45;15.45;;;;;;;0.87;45.98;101198.19;7391029;19;19999;-59
2022/12/16 03:22:23;;;;;;;27.30;15.20;;;;;;;1.06;45.61;101190.44;7388486;19;20006;-59
2022/12/16 03:24:49;;;;;;;31.38;16.17;;;;;;;1.15;45.12;101200.69;7390409;19;20011;-59
2022/12/16 03:27:43;;;;;;;27.83;15.77;;;;;;;1.08;44.77;101195.56;7390672;19;19999;-58
2022/12/16 03:30:15;;;;;;;27.17;15.70;;;;;;;0.88;45.45;101204.38;7390762;19;19999;-59
2022/12/16 03:32:46;;;;;;;28.52;16.00;;;;;;;0.88;45.31;101202.50;7389326;19;19998;-59
2022/12/16 03:35:27;;;;;;;26.95;15.90;;;;;;;0.94;45.28;101217.56;7390019;19;20027;-59
2022/12/16 03:37:55;;;;;;;25.92;15.65;;;;;;;0.88;45.38;101215.94;7391056;19;20003;-58
2022/12/16 03:40:24;;;;;;;25.80;15.32;;;;;;;0.96;45.07;101211.13;7397155;19;20002;-58
2022/12/16 03:42:51;;;;;;;28.75;15.30;;;;;;;0.93;45.05;101223.19;7395384;19;20002;-59
2022/12/16 03:45:23;;;;;;;28.33;15.25;;;;;;;0.79;45.25;101214.84;7396487;19;20488;-58
2022/12/16 03:47:50;;;;;;;30.13;16.73;;;;;;;0.74;45.00;101209.44;7397004;19;20014;-59
2022/12/16 03:50:20;;;;;;;25.50;14.95;;;;;;;0.77;45.33;101218.88;7397657;19;20007;-59
2022/12/16 03:52:45;;;;;;;29.23;16.92;;;;;;;0.88;44.81;101225.88;7396371;19;19998;-59
2022/12/16 03:55:11;;;;;;;26.58;15.45;;;;;;;0.80;44.81;101229.06;7397149;19;20048;-60
2022/12/16 03:57:37;;;;;;;28.55;16.17;;;;;;;0.64;45.30;101231.72;7396141;19;20030;-59
2022/12/16 04:00:04;;;;;;;25.55;15.55;;;;;;;0.77;45.06;101229.63;7396891;19;20003;-59
2022/12/16 04:02:30;;;;;;;29.52;17.08;;;;;;;0.76;44.97;101223.41;7392467;19;20006;-58
2022/12/16 04:04:56;;;;;;;32.95;16.75;;;;;;;0.75;44.71;101230.69;7396735;19;19999;-58
2022/12/16 04:07:24;;;;;;;28.67;15.93;;;;;;;0.59;45.40;101236.28;7396179;19;20003;-58
2022/12/16 04:09:51;;;;;;;29.27;16.45;;;;;;;0.67;44.98;101239.25;7396374;19;20332;-59
2022/12/16 04:26:10;;;;;;;30.73;16.02;;;;;;;0.74;44.65;101249.75;7396144;19;20016;-59
2022/12/16 04:28:36;;;;;;;32.13;16.40;;;;;;;0.64;44.80;101245.16;7393724;19;20427;-60
2022/12/16 04:31:01;;;;;;;30.13;16.63;;;;;;;0.32;45.49;101251.44;7395917;19;20071;-59
